Highland-University Park's Hourly Summary for Thursday, July 5, 2018
Hour Temp
(f)
RH
(%)
Solar Rad.
(MJ/m2)
Rainfall
(in)
Wind
(mph)
7/5/2018 12:00 AM 79 67 0 0 3.41
7/5/2018 1:00 AM 77 72 0 0 1.83
7/5/2018 2:00 AM 76 75 0 0 0.53
7/5/2018 3:00 AM 76 78 0 0 0.74
7/5/2018 4:00 AM 74 82 0 0 0.02
7/5/2018 5:00 AM 74 86 0 0 0.05
7/5/2018 6:00 AM 73 88 0 0 0.02
7/5/2018 7:00 AM 73 88 0.01 0 0.13
7/5/2018 8:00 AM 75 82 0.11 0 0.56
7/5/2018 9:00 AM 78 68 0.27 0 1.01
7/5/2018 10:00 AM 82 56 1.53 0 1.01
7/5/2018 11:00 AM 86 49 2.32 0 1.06
7/5/2018 12:00 PM 89 47 2.72 0 1.5
7/5/2018 1:00 PM 91 43 2.94 0 1.89
7/5/2018 2:00 PM 93 41 3.08 0 2.65
7/5/2018 3:00 PM 95 37 3.02 0 2.57
7/5/2018 4:00 PM 96 34 2.27 0 1.72
7/5/2018 5:00 PM 98 32 2.17 0 1.66
7/5/2018 6:00 PM 98 33 1.71 0 1.39
7/5/2018 7:00 PM 95 34 0.74 0 1.3
7/5/2018 8:00 PM 92 38 0.22 0 1.76
7/5/2018 9:00 PM 88 52 0.03 0 2.79
7/5/2018 10:00 PM 86 57 0 0 1.81
7/5/2018 11:00 PM 85 60 0 0 1.28
Data Summary 84 58 23.14 0.00 1.36